Time;durP1;ratioP1;P1;durP2;ratioP2;P2;SDS_P1;SDS_P2;PMS_P1;PMS_P2;Temp;Humidity;BMP_temperature;BMP_pressure;BME280_temperature;BME280_humidity;BME280_pressure;Samples;Min_cycle;Max_cycle;Signal;HPM_P1;HPM_P2
2023/05/01 00:00:17;;;;;;;11.30;5.82;;;;;;;10.26;50.96;102028.00;5078035;28;20510;-37
2023/05/01 00:02:42;;;;;;;17.20;6.88;;;;;;;10.32;50.68;102031.25;5087233;28;20915;-38
2023/05/01 00:05:08;;;;;;;11.68;6.20;;;;;;;10.31;50.69;102034.81;5096861;28;20047;-38
2023/05/01 00:07:34;;;;;;;15.68;6.15;;;;;;;10.32;50.51;102031.25;5081657;28;20117;-36
2023/05/01 00:09:59;;;;;;;10.65;6.50;;;;;;;10.24;50.53;102038.56;5103872;28;20130;-41
2023/05/01 00:12:25;;;;;;;7.97;4.97;;;;;;;10.19;50.68;102027.34;5083313;28;20162;-38
2023/05/01 00:14:52;;;;;;;15.20;6.30;;;;;;;10.17;50.70;102022.13;5103101;27;20032;-39
2023/05/01 00:17:18;;;;;;;15.05;6.28;;;;;;;10.15;50.99;102017.84;5093795;28;20046;-36
2023/05/01 00:19:43;;;;;;;12.48;5.63;;;;;;;10.11;51.09;102018.84;5096442;28;20595;-38
2023/05/01 00:22:09;;;;;;;18.35;5.50;;;;;;;10.11;50.92;102013.59;5073666;28;20054;-38
2023/05/01 00:24:34;;;;;;;12.45;5.90;;;;;;;10.05;51.31;102012.06;5085190;28;21261;-38
2023/05/01 00:26:59;;;;;;;10.27;5.32;;;;;;;10.02;50.98;102018.28;5092991;27;20023;-38
2023/05/01 00:29:25;;;;;;;9.32;5.22;;;;;;;10.05;51.05;102015.56;5089323;28;20027;-37
2023/05/01 00:31:50;;;;;;;10.90;6.18;;;;;;;10.06;51.09;102009.34;5083827;28;20062;-38
2023/05/01 00:34:16;;;;;;;15.20;5.82;;;;;;;10.05;50.98;102007.66;5091799;28;20055;-38
2023/05/01 00:36:41;;;;;;;14.52;5.65;;;;;;;10.03;51.02;102004.22;5090816;28;20046;-38
2023/05/01 00:39:07;;;;;;;14.88;6.95;;;;;;;10.00;50.93;101999.06;5084180;28;20043;-39
2023/05/01 00:41:35;;;;;;;13.05;5.55;;;;;;;9.98;51.17;101995.63;5089486;28;20028;-39
2023/05/01 00:44:02;;;;;;;11.20;5.63;;;;;;;9.95;51.22;101990.47;5073472;28;20045;-37
2023/05/01 00:46:29;;;;;;;13.32;5.80;;;;;;;9.90;51.01;101992.44;5085545;28;20482;-37
2023/05/01 00:48:56;;;;;;;12.65;5.45;;;;;;;9.90;51.09;101980.13;5086837;28;20040;-39
2023/05/01 00:51:21;;;;;;;14.45;5.63;;;;;;;9.89;50.79;101982.81;5082054;28;20062;-39
2023/05/01 00:53:47;;;;;;;15.15;6.10;;;;;;;9.80;51.20;101978.75;5092736;28;20047;-38
2023/05/01 00:56:13;;;;;;;13.07;5.75;;;;;;;9.75;51.09;101971.03;5073502;28;20092;-39
2023/05/01 00:58:39;;;;;;;18.30;5.90;;;;;;;9.70;51.11;101972.06;5087635;28;20046;-38
2023/05/01 01:01:07;;;;;;;12.70;5.85;;;;;;;9.69;51.18;101962.47;5092113;27;20058;-39
2023/05/01 01:03:33;;;;;;;9.98;5.22;;;;;;;9.61;51.43;101971.47;5088343;28;20031;-40
2023/05/01 01:06:30;;;;;;;14.48;5.90;;;;;;;9.56;51.88;101970.75;5070237;28;20093;-38
2023/05/01 01:09:16;;;;;;;10.63;5.30;;;;;;;9.55;51.70;101965.56;5087791;28;20118;-39
2023/05/01 01:12:03;;;;;;;10.68;6.13;;;;;;;9.55;51.76;101962.94;5083495;28;20050;-38
2023/05/01 01:14:46;;;;;;;9.32;5.68;;;;;;;9.53;51.47;101970.84;5089630;28;20116;-38
2023/05/01 01:17:33;;;;;;;9.90;5.80;;;;;;;9.48;52.22;101974.56;5083657;28;20042;-36
2023/05/01 01:20:22;;;;;;;15.05;6.03;;;;;;;9.44;51.94;101968.56;5084862;28;20059;-39
2023/05/01 01:23:34;;;;;;;17.45;6.88;;;;;;;9.43;52.31;101964.22;5094075;28;20019;-39
2023/05/01 01:26:41;;;;;;;7.65;4.97;;;;;;;9.39;52.22;101968.72;5069724;28;20053;-38
2023/05/01 01:29:16;;;;;;;12.48;5.15;;;;;;;9.39;51.86;101958.22;5069832;28;20567;-36
2023/05/01 01:32:23;;;;;;;13.00;6.40;;;;;;;9.44;51.96;101969.44;5088651;28;20089;-38
2023/05/01 01:35:02;;;;;;;13.80;6.25;;;;;;;9.45;51.69;101968.50;5099070;28;20110;-39
2023/05/01 01:37:32;;;;;;;10.32;5.65;;;;;;;9.47;51.56;101965.84;5090484;28;20119;-38
2023/05/01 01:40:04;;;;;;;11.23;5.82;;;;;;;9.48;51.45;101966.69;5091463;28;20485;-37
2023/05/01 01:42:41;;;;;;;12.45;5.72;;;;;;;9.40;51.62;101965.19;5082871;28;20052;-39
2023/05/01 01:45:17;;;;;;;12.07;6.30;;;;;;;9.33;51.76;101962.81;5091601;28;20069;-39
2023/05/01 01:47:44;;;;;;;12.30;6.50;;;;;;;9.21;51.62;101961.44;5080631;28;20111;-39
2023/05/01 01:50:11;;;;;;;14.00;5.80;;;;;;;9.14;52.21;101958.16;5076707;28;20028;-39
2023/05/01 01:52:41;;;;;;;13.77;5.53;;;;;;;9.12;52.31;101949.44;5081856;28;20111;-37
2023/05/01 01:55:12;;;;;;;12.98;6.43;;;;;;;9.17;52.29;101949.28;5086570;28;20125;-38
2023/05/01 01:57:41;;;;;;;13.88;5.68;;;;;;;9.20;51.96;101949.19;5069462;28;20095;-39
2023/05/01 02:00:09;;;;;;;15.18;6.55;;;;;;;9.20;51.63;101951.84;5084720;28;21467;-39
2023/05/01 02:02:37;;;;;;;16.10;6.50;;;;;;;9.15;52.03;101951.97;5090076;28;20523;-39
2023/05/01 02:05:05;;;;;;;15.15;6.20;;;;;;;9.15;51.78;101947.56;5093183;27;20054;-41
2023/05/01 02:07:31;;;;;;;12.70;5.88;;;;;;;9.11;51.82;101950.34;5090434;27;20028;-38
2023/05/01 02:10:00;;;;;;;14.80;6.85;;;;;;;9.10;51.64;101946.00;5095171;27;20100;-38
2023/05/01 02:12:26;;;;;;;12.65;6.72;;;;;;;9.05;51.81;101940.91;5093551;27;20034;-38
2023/05/01 02:14:52;;;;;;;13.63;6.47;;;;;;;9.03;52.22;101947.13;5099446;28;20020;-39
2023/05/01 02:17:20;;;;;;;12.77;6.20;;;;;;;8.96;51.99;101936.81;5094658;28;20058;-39
2023/05/01 02:19:46;;;;;;;18.08;7.10;;;;;;;8.94;52.31;101936.00;5096769;28;20049;-39
2023/05/01 02:22:13;;;;;;;17.15;7.45;;;;;;;8.96;52.43;101941.22;5098073;28;20549;-39
2023/05/01 02:24:42;;;;;;;13.98;6.68;;;;;;;8.91;52.32;101930.00;5095535;28;20043;-38
2023/05/01 02:27:15;;;;;;;13.00;7.13;;;;;;;8.85;52.72;101928.44;5095933;28;20048;-38
2023/05/01 02:29:41;;;;;;;13.05;7.03;;;;;;;8.84;52.53;101921.47;5098667;28;20110;-38
2023/05/01 02:32:07;;;;;;;20.77;6.25;;;;;;;8.84;52.88;101926.72;5096014;27;20099;-38
2023/05/01 02:34:35;;;;;;;13.13;6.25;;;;;;;8.85;52.80;101924.03;5094959;28;20045;-38
2023/05/01 02:37:03;;;;;;;12.30;6.22;;;;;;;8.88;52.53;101923.09;5097931;28;20782;-38
2023/05/01 02:39:29;;;;;;;13.70;6.53;;;;;;;8.85;52.71;101924.03;5076513;28;20412;-38
2023/05/01 02:41:57;;;;;;;12.05;5.90;;;;;;;8.89;52.45;101922.19;5094150;28;20478;-38
2023/05/01 02:44:25;;;;;;;13.10;6.30;;;;;;;8.89;52.49;101921.31;5095339;27;20384;-38
2023/05/01 02:46:52;;;;;;;13.73;6.78;;;;;;;8.87;52.51;101910.88;5085316;28;20519;-38
2023/05/01 02:49:20;;;;;;;13.02;7.00;;;;;;;8.87;52.55;101915.25;5096366;27;20023;-38
2023/05/01 02:51:47;;;;;;;13.05;6.18;;;;;;;8.88;52.68;101909.97;5084602;28;20023;-38
2023/05/01 02:54:13;;;;;;;15.15;5.80;;;;;;;8.84;52.91;101908.34;5091424;28;20038;-38
2023/05/01 02:56:38;;;;;;;12.00;6.05;;;;;;;8.81;52.76;101911.06;5084721;28;20401;-38
2023/05/01 02:59:04;;;;;;;18.15;6.85;;;;;;;8.80;52.78;101912.84;5076724;28;20043;-38
2023/05/01 03:01:29;;;;;;;15.75;8.05;;;;;;;8.82;52.91;101905.78;5096125;27;20169;-38
2023/05/01 03:03:55;;;;;;;13.13;6.50;;;;;;;8.82;52.85;101903.16;5098554;27;20066;-38
2023/05/01 03:06:20;;;;;;;13.05;6.60;;;;;;;8.82;52.56;101903.16;5066422;27;20402;-38
2023/05/01 03:08:46;;;;;;;14.80;7.05;;;;;;;8.81;52.62;101903.19;5080583;28;20046;-38
2023/05/01 03:11:13;;;;;;;14.65;6.13;;;;;;;8.80;52.84;101899.72;5078557;28;20039;-38
2023/05/01 03:13:38;;;;;;;15.15;7.10;;;;;;;8.81;52.59;101896.19;5094370;27;20493;-38
2023/05/01 03:16:04;;;;;;;16.35;6.95;;;;;;;8.83;52.82;101893.50;5102809;27;20080;-38
2023/05/01 03:18:30;;;;;;;12.80;7.25;;;;;;;8.80;52.93;101888.34;5083787;27;20037;-38
2023/05/01 03:20:55;;;;;;;17.50;7.05;;;;;;;8.70;52.93;101895.63;5096318;28;20147;-38
2023/05/01 03:23:22;;;;;;;12.38;6.57;;;;;;;8.65;53.23;101889.69;5092802;27;20039;-38
2023/05/01 03:25:48;;;;;;;15.07;7.43;;;;;;;8.61;53.32;101895.94;5091847;27;20043;-38
2023/05/01 03:28:13;;;;;;;16.67;7.05;;;;;;;8.59;53.41;101893.38;5090346;28;20095;-38
2023/05/01 03:30:39;;;;;;;16.15;7.55;;;;;;;8.63;53.37;101883.63;5080756;28;20432;-38
2023/05/01 03:33:04;;;;;;;14.55;6.25;;;;;;;8.67;53.30;101882.63;5075264;28;20392;-38
2023/05/01 03:35:30;;;;;;;13.95;6.97;;;;;;;8.67;53.32;101882.63;5093137;27;20045;-38
2023/05/01 03:37:55;;;;;;;13.70;6.55;;;;;;;8.66;53.21;101886.16;5093547;27;20042;-38
2023/05/01 03:40:21;;;;;;;13.07;7.07;;;;;;;8.65;53.42;101884.44;5089648;28;20062;-38
2023/05/01 03:42:46;;;;;;;16.88;7.65;;;;;;;8.65;53.53;101881.81;5071427;28;20048;-38
2023/05/01 03:45:11;;;;;;;15.18;7.35;;;;;;;8.66;53.82;101886.16;5091779;28;21095;-38
2023/05/01 03:47:37;;;;;;;17.25;6.60;;;;;;;8.65;53.85;101879.19;5069896;28;20125;-38
2023/05/01 03:50:03;;;;;;;13.50;6.63;;;;;;;8.62;53.93;101874.03;5091861;27;20769;-38
2023/05/01 03:52:28;;;;;;;14.52;6.78;;;;;;;8.62;53.54;101876.66;5097391;27;20120;-38
2023/05/01 03:54:54;;;;;;;14.98;6.72;;;;;;;8.65;53.57;101874.78;5089776;28;20401;-38
2023/05/01 03:57:22;;;;;;;17.42;7.00;;;;;;;8.66;53.71;101876.50;5091958;28;20034;-38
2023/05/01 03:59:49;;;;;;;13.75;7.10;;;;;;;8.71;53.36;101876.38;5090027;28;20028;-38
2023/05/01 04:02:15;;;;;;;14.80;7.15;;;;;;;8.73;53.66;101871.94;5075693;28;20386;-38
2023/05/01 04:04:43;;;;;;;15.15;7.00;;;;;;;8.75;53.88;101872.75;5097396;28;20508;-38
2023/05/01 04:07:08;;;;;;;16.23;6.78;;;;;;;8.75;53.64;101874.53;5073811;28;20077;-38
2023/05/01 04:09:34;;;;;;;12.23;6.22;;;;;;;8.73;53.87;101885.06;5079209;28;20066;-38
2023/05/01 04:12:01;;;;;;;14.18;7.05;;;;;;;8.72;53.91;101879.88;5096663;28;20082;-38
2023/05/01 04:14:27;;;;;;;16.75;7.00;;;;;;;8.75;53.72;101879.78;5092435;28;20048;-38
2023/05/01 04:16:53;;;;;;;12.68;6.20;;;;;;;8.76;53.46;101874.47;5085655;28;20123;-38
2023/05/01 04:19:18;;;;;;;15.32;6.45;;;;;;;8.78;53.53;101875.28;5093184;27;20045;-38
2023/05/01 04:21:43;;;;;;;9.68;4.95;;;;;;;8.82;53.60;101879.53;5076998;28;20023;-38
2023/05/01 04:24:09;;;;;;;12.30;6.70;;;;;;;8.85;53.61;101871.53;5087415;28;20520;-38
2023/05/01 04:26:37;;;;;;;7.70;3.38;;;;;;;8.89;53.38;101876.69;5087198;28;20044;-38
2023/05/01 04:29:03;;;;;;;12.85;6.13;;;;;;;8.98;53.10;101871.16;5078007;28;20556;-39
2023/05/01 04:31:29;;;;;;;10.25;5.10;;;;;;;9.03;53.27;101868.38;5084894;28;20574;-38
2023/05/01 04:33:54;;;;;;;11.40;4.90;;;;;;;9.07;53.15;101868.22;5094768;28;20541;-38
2023/05/01 04:36:20;;;;;;;11.90;4.53;;;;;;;9.13;52.86;101869.78;5088697;28;20063;-39
2023/05/01 04:38:46;;;;;;;12.98;5.18;;;;;;;9.19;52.49;101869.56;5091695;28;20469;-39
2023/05/01 04:41:11;;;;;;;12.85;5.43;;;;;;;9.19;52.69;101864.31;5091943;27;20067;-38
2023/05/01 04:43:36;;;;;;;8.85;4.20;;;;;;;9.25;52.39;101860.63;5073409;28;20035;-38
2023/05/01 04:46:03;;;;;;;8.88;4.13;;;;;;;9.31;52.19;101868.28;5073092;28;20040;-38
2023/05/01 04:48:29;;;;;;;9.07;4.63;;;;;;;9.36;51.90;101863.72;5093642;27;20043;-38
2023/05/01 04:50:54;;;;;;;7.72;4.05;;;;;;;9.40;51.94;101861.84;5068669;28;20499;-38
2023/05/01 04:53:20;;;;;;;7.47;4.18;;;;;;;9.44;51.63;101856.47;5076000;28;20050;-38
2023/05/01 04:55:45;;;;;;;8.93;4.05;;;;;;;9.48;51.77;101858.94;5083073;28;20478;-38
2023/05/01 04:58:11;;;;;;;10.45;4.22;;;;;;;9.51;51.62;101859.72;5092786;28;20621;-38
2023/05/01 05:00:36;;;;;;;8.38;3.78;;;;;;;9.55;51.52;101857.84;5091353;28;20023;-39
2023/05/01 05:03:01;;;;;;;8.27;4.22;;;;;;;9.58;51.51;101852.47;5074300;28;20024;-38
2023/05/01 05:05:27;;;;;;;11.65;4.03;;;;;;;9.60;51.29;101858.53;5095301;28;20025;-38
2023/05/01 05:07:52;;;;;;;11.35;3.95;;;;;;;9.64;51.29;101849.63;5090227;28;20043;-39
2023/05/01 05:10:18;;;;;;;10.40;5.05;;;;;;;9.69;50.99;101858.19;5097158;28;20062;-38
2023/05/01 05:12:44;;;;;;;13.50;4.50;;;;;;;9.76;50.70;101848.31;5092500;28;20120;-38
2023/05/01 05:15:10;;;;;;;9.70;3.90;;;;;;;9.81;50.75;101846.41;5087199;28;20308;-39
2023/05/01 05:17:35;;;;;;;11.40;5.03;;;;;;;9.83;50.61;101846.31;5068879;28;20031;-39
2023/05/01 05:20:01;;;;;;;15.20;4.28;;;;;;;9.84;50.73;101845.41;5076405;28;20124;-38
2023/05/01 05:22:27;;;;;;;9.57;3.65;;;;;;;9.89;50.55;101846.94;5086388;28;20042;-39
2023/05/01 05:24:54;;;;;;;11.43;4.80;;;;;;;9.91;50.29;101842.50;5059350;28;20037;-39
2023/05/01 05:27:20;;;;;;;7.28;3.83;;;;;;;9.95;50.41;101845.03;5091820;28;20045;-38
2023/05/01 05:29:45;;;;;;;9.82;4.25;;;;;;;9.99;50.39;101838.72;5086199;28;20054;-39
2023/05/01 05:32:12;;;;;;;17.92;8.05;;;;;;;10.00;50.30;101846.56;5072952;28;20027;-38
2023/05/01 05:34:38;;;;;;;9.38;4.75;;;;;;;10.02;50.32;101844.72;5095399;28;20023;-39
2023/05/01 05:37:03;;;;;;;10.63;4.05;;;;;;;10.06;50.33;101833.16;5091645;28;20039;-40
2023/05/01 05:39:30;;;;;;;9.43;4.43;;;;;;;10.11;50.17;101837.41;5085320;28;20030;-39
2023/05/01 05:41:56;;;;;;;8.57;4.40;;;;;;;10.14;50.05;101832.03;5086184;28;20139;-38
2023/05/01 05:44:21;;;;;;;8.18;4.32;;;;;;;10.16;50.14;101832.81;5086189;28;20482;-40
2023/05/01 05:46:46;;;;;;;9.45;5.03;;;;;;;10.18;49.90;101833.63;5086444;28;20438;-39
2023/05/01 05:49:12;;;;;;;12.50;5.45;;;;;;;10.21;49.81;101833.47;5091032;28;20020;-37
2023/05/01 05:51:37;;;;;;;10.15;5.00;;;;;;;10.21;49.78;101828.22;5090211;28;20035;-39
2023/05/01 05:54:03;;;;;;;10.32;3.63;;;;;;;10.22;49.77;101819.41;5037909;28;20114;-39
2023/05/01 05:56:28;;;;;;;14.60;5.43;;;;;;;10.25;49.54;101816.66;5052190;28;20972;-40
2023/05/01 05:58:54;;;;;;;12.80;4.55;;;;;;;10.30;49.68;101816.50;5093023;28;20059;-38
2023/05/01 06:01:19;;;;;;;10.85;4.68;;;;;;;10.35;49.88;101820.69;5084814;28;20057;-40
2023/05/01 06:03:45;;;;;;;7.80;3.90;;;;;;;10.41;49.61;101813.47;5080615;28;20028;-38
2023/05/01 06:06:10;;;;;;;14.00;4.30;;;;;;;10.40;49.64;101811.75;5072344;28;20104;-39
2023/05/01 06:08:36;;;;;;;7.82;4.75;;;;;;;10.41;49.73;101814.34;5061130;28;20036;-39
2023/05/01 06:11:04;;;;;;;8.40;4.20;;;;;;;10.43;49.64;101814.28;5069049;28;20020;-39
2023/05/01 06:13:29;;;;;;;8.05;4.22;;;;;;;10.47;49.48;101807.97;5073953;28;20430;-38
2023/05/01 06:15:56;;;;;;;9.80;4.03;;;;;;;10.51;49.28;101809.56;5093023;28;20123;-39
2023/05/01 06:18:21;;;;;;;6.70;4.05;;;;;;;10.55;49.62;101810.28;5091117;28;20547;-39
2023/05/01 06:20:47;;;;;;;12.18;5.80;;;;;;;10.59;49.56;101807.47;5091566;28;20028;-39
2023/05/01 06:23:12;;;;;;;16.80;7.38;;;;;;;10.62;49.43;101812.63;5089690;28;20028;-38
2023/05/01 06:25:38;;;;;;;10.65;5.47;;;;;;;10.64;49.52;101809.91;5093138;28;20050;-39
2023/05/01 06:28:04;;;;;;;15.98;6.97;;;;;;;10.67;49.46;101802.72;5091841;28;20024;-39
2023/05/01 06:30:29;;;;;;;9.48;5.07;;;;;;;10.74;49.46;101807.75;5094327;28;20023;-39
2023/05/01 06:32:55;;;;;;;13.07;4.72;;;;;;;10.76;49.16;101803.28;5086744;28;20486;-37
2023/05/01 06:35:20;;;;;;;10.27;5.03;;;;;;;10.78;49.32;101796.19;5093483;28;20112;-39
2023/05/01 06:37:46;;;;;;;11.43;4.30;;;;;;;10.80;49.22;101804.88;5077417;28;20035;-38
2023/05/01 06:40:11;;;;;;;5.18;3.13;;;;;;;10.83;49.14;101799.47;5099842;28;20060;-38
2023/05/01 06:42:38;;;;;;;9.32;4.18;;;;;;;10.86;49.15;101799.34;5070319;28;20043;-38
2023/05/01 06:45:05;;;;;;;12.85;5.20;;;;;;;10.90;49.24;101800.06;5095554;28;20035;-38
2023/05/01 06:47:30;;;;;;;12.23;5.45;;;;;;;10.97;49.08;101801.53;5093821;28;20059;-38
2023/05/01 06:49:56;;;;;;;7.20;3.28;;;;;;;11.04;48.99;101799.50;5094752;28;20495;-38
2023/05/01 06:52:21;;;;;;;7.07;3.13;;;;;;;11.08;48.88;101799.28;5096379;28;20036;-38
2023/05/01 06:54:47;;;;;;;6.93;3.88;;;;;;;11.12;48.95;101795.59;5097275;28;20020;-39
2023/05/01 06:57:12;;;;;;;12.55;4.07;;;;;;;11.16;48.88;101791.06;5098004;28;20043;-38
2023/05/01 06:59:39;;;;;;;9.68;3.10;;;;;;;11.17;48.87;101789.28;5098989;27;20035;-38
2023/05/01 07:02:04;;;;;;;11.05;3.50;;;;;;;11.21;48.95;101791.72;5094040;27;20084;-38
2023/05/01 07:04:30;;;;;;;7.65;3.50;;;;;;;11.28;48.75;101789.66;5077999;28;20038;-38
2023/05/01 07:06:56;;;;;;;18.20;6.03;;;;;;;11.32;48.80;101791.25;5093017;28;20035;-38
2023/05/01 07:09:21;;;;;;;14.45;4.45;;;;;;;11.38;48.69;101779.59;5090582;28;20031;-38
2023/05/01 07:11:47;;;;;;;13.50;5.70;;;;;;;11.42;48.58;101773.22;5091880;28;20024;-39
2023/05/01 07:14:12;;;;;;;17.70;7.20;;;;;;;11.47;48.73;101775.69;5092331;28;20438;-38
2023/05/01 07:16:38;;;;;;;13.15;5.30;;;;;;;11.49;48.34;101773.84;5096187;28;20213;-38
2023/05/01 07:19:03;;;;;;;6.25;3.13;;;;;;;11.53;48.13;101764.84;5091337;28;20409;-38
2023/05/01 07:21:28;;;;;;;9.50;3.95;;;;;;;11.55;48.18;101777.03;5086179;28;20036;-38
2023/05/01 07:23:54;;;;;;;9.27;3.60;;;;;;;11.62;47.98;101771.47;5091595;28;20043;-38
2023/05/01 07:26:20;;;;;;;14.60;3.75;;;;;;;11.67;47.68;101770.34;5083101;28;20081;-38
2023/05/01 07:28:48;;;;;;;10.30;3.40;;;;;;;11.72;47.74;101768.34;5087668;28;20070;-38
2023/05/01 07:31:14;;;;;;;7.82;3.42;;;;;;;11.78;47.71;101769.00;5097644;28;20031;-38
2023/05/01 07:33:40;;;;;;;9.82;3.78;;;;;;;11.83;47.63;101765.22;5086985;27;21308;-39
2023/05/01 07:36:08;;;;;;;7.97;3.33;;;;;;;11.90;47.51;101766.63;5072686;28;20038;-39
2023/05/01 07:38:33;;;;;;;9.70;3.58;;;;;;;11.94;47.48;101764.72;5093189;28;20030;-39
2023/05/01 07:40:59;;;;;;;10.90;3.50;;;;;;;11.99;47.24;101761.91;5086084;28;20032;-38
2023/05/01 07:43:24;;;;;;;7.75;3.60;;;;;;;12.03;47.19;101763.44;5087184;27;20088;-38
2023/05/01 07:45:58;;;;;;;6.22;3.10;;;;;;;12.12;47.11;101760.38;5095852;28;20015;-38
2023/05/01 07:48:27;;;;;;;8.30;3.95;;;;;;;12.18;47.08;101767.16;5076428;28;20067;-38
2023/05/01 07:50:53;;;;;;;20.08;9.05;;;;;;;12.22;46.92;101762.56;5093775;28;20022;-38
2023/05/01 07:53:19;;;;;;;8.43;4.43;;;;;;;12.26;46.81;101758.84;5092537;28;20050;-39
2023/05/01 07:55:45;;;;;;;7.88;3.97;;;;;;;12.33;46.67;101758.47;5091420;28;21063;-39
2023/05/01 07:58:10;;;;;;;12.90;3.83;;;;;;;12.39;46.55;101757.31;5092634;27;20027;-38
2023/05/01 08:00:36;;;;;;;15.00;4.20;;;;;;;12.46;46.59;101758.75;5088968;28;20036;-38
2023/05/01 08:03:02;;;;;;;11.02;3.92;;;;;;;12.53;46.50;101745.22;5096084;28;20477;-38
2023/05/01 08:05:30;;;;;;;8.63;3.40;;;;;;;12.58;46.46;101745.84;5097958;27;20039;-38
2023/05/01 08:07:55;;;;;;;9.90;3.25;;;;;;;12.64;46.60;101745.53;5089308;27;20155;-39
2023/05/01 08:10:21;;;;;;;8.20;3.42;;;;;;;12.69;46.30;101738.25;5085111;27;20031;-38
2023/05/01 08:12:46;;;;;;;8.90;4.03;;;;;;;12.76;46.30;101744.94;5092678;27;20040;-38
2023/05/01 08:15:12;;;;;;;12.60;3.55;;;;;;;12.86;46.33;101739.16;5089574;27;20028;-38
2023/05/01 08:17:37;;;;;;;10.55;3.30;;;;;;;12.94;46.18;101736.97;5097605;27;20034;-38
2023/05/01 08:20:03;;;;;;;10.25;4.43;;;;;;;13.02;46.27;101737.44;5100126;27;20020;-38
2023/05/01 08:22:28;;;;;;;10.43;3.80;;;;;;;13.07;45.98;101731.91;5082029;28;20043;-38
2023/05/01 08:24:54;;;;;;;8.05;3.05;;;;;;;13.14;45.75;101732.44;5089089;28;20046;-38
2023/05/01 08:27:20;;;;;;;11.98;3.15;;;;;;;13.19;45.53;101720.69;5091605;28;20027;-34
2023/05/01 08:29:45;;;;;;;7.90;3.20;;;;;;;13.23;45.71;101721.41;5081751;27;20034;-35
2023/05/01 08:32:13;;;;;;;8.48;2.55;;;;;;;13.25;45.22;101720.38;5098070;28;20023;-35
2023/05/01 08:34:39;;;;;;;9.25;3.50;;;;;;;13.29;45.14;101721.06;5100295;28;20535;-34
2023/05/01 08:37:05;;;;;;;11.13;4.10;;;;;;;13.37;45.13;101724.16;5094876;28;20039;-35
2023/05/01 08:39:32;;;;;;;7.80;3.38;;;;;;;13.46;44.64;101721.97;5102212;27;20028;-34
2023/05/01 08:41:58;;;;;;;9.35;2.40;;;;;;;13.53;44.71;101723.34;5101180;28;20123;-34
2023/05/01 08:44:27;;;;;;;9.13;3.58;;;;;;;13.62;44.65;101722.84;5094065;28;20111;-35
2023/05/01 08:47:09;;;;;;;8.90;2.95;;;;;;;13.71;44.41;101710.91;5077798;28;20023;-34
2023/05/01 08:49:36;;;;;;;7.60;3.23;;;;;;;13.78;44.53;101709.59;5087669;28;20031;-35
2023/05/01 08:52:05;;;;;;;10.25;4.68;;;;;;;13.86;44.24;101698.59;5096944;28;20039;-35
2023/05/01 08:54:32;;;;;;;8.80;3.38;;;;;;;13.96;44.06;101699.78;5096019;28;20036;-35
2023/05/01 08:57:04;;;;;;;9.43;3.28;;;;;;;14.04;43.90;101702.00;5105216;27;20031;-35
2023/05/01 08:59:34;;;;;;;12.07;3.92;;;;;;;14.11;43.81;101702.50;5102621;28;20031;-35
2023/05/01 09:02:08;;;;;;;3.78;2.42;;;;;;;14.18;43.53;101698.56;5098095;28;20032;-40
2023/05/01 09:04:43;;;;;;;6.18;3.15;;;;;;;14.27;43.15;101695.38;5098810;28;20104;-35
2023/05/01 09:07:09;;;;;;;6.35;2.53;;;;;;;14.34;43.23;101701.19;5092745;28;20438;-35
2023/05/01 09:09:34;;;;;;;6.55;2.80;;;;;;;14.43;43.13;101691.84;5100259;28;20035;-35
2023/05/01 09:12:19;;;;;;;9.90;3.33;;;;;;;14.51;42.38;101686.94;5103197;28;20020;-35
2023/05/01 09:14:45;;;;;;;6.15;3.22;;;;;;;14.57;42.71;101689.22;5096322;28;20015;-35
2023/05/01 09:17:12;;;;;;;7.70;2.67;;;;;;;14.61;42.73;101680.13;5074045;28;20394;-35
2023/05/01 09:19:37;;;;;;;5.95;2.53;;;;;;;14.65;42.51;101678.16;5099109;28;20032;-35
2023/05/01 09:24:32;;;;;;;6.82;2.42;;;;;;;14.73;42.32;101677.75;5047786;28;20052;-37
2023/05/01 09:26:58;;;;;;;7.38;3.80;;;;;;;14.79;42.14;101677.34;5055632;28;20036;-37
2023/05/01 09:29:44;;;;;;;8.18;3.08;;;;;;;14.86;40.95;101665.44;5026149;28;20453;-36
2023/05/01 09:32:13;;;;;;;8.70;3.83;;;;;;;14.91;41.88;101654.56;5063419;28;20059;-36
2023/05/01 09:34:39;;;;;;;8.23;3.13;;;;;;;14.93;41.76;101653.50;5078127;28;20032;-36
2023/05/01 09:37:05;;;;;;;3.65;1.58;;;;;;;14.97;41.31;101648.03;5062706;28;20541;-35
2023/05/01 09:39:31;;;;;;;5.40;2.58;;;;;;;15.01;41.65;101644.25;5070950;28;20441;-35
2023/05/01 09:41:56;;;;;;;9.50;3.25;;;;;;;15.08;41.62;101640.25;5065324;28;20100;-36
2023/05/01 09:44:22;;;;;;;8.85;2.60;;;;;;;15.17;41.32;101645.00;5067703;28;21286;-36
2023/05/01 09:46:48;;;;;;;8.95;2.65;;;;;;;15.24;41.07;101646.28;5077969;28;20039;-36
2023/05/01 09:49:14;;;;;;;5.65;2.42;;;;;;;15.32;41.02;101642.31;5070920;28;20020;-36
2023/05/01 09:51:40;;;;;;;7.30;3.17;;;;;;;15.37;40.96;101640.22;5074290;28;20052;-36
2023/05/01 09:54:17;;;;;;;17.02;6.68;;;;;;;15.44;40.17;101628.28;5073116;28;20036;-37
2023/05/01 09:56:47;;;;;;;9.52;5.05;;;;;;;15.47;40.78;101630.72;5072183;28;20169;-39
2023/05/01 09:59:18;;;;;;;14.70;3.72;;;;;;;15.53;40.94;101630.31;5065858;28;20491;-36
2023/05/01 10:01:45;;;;;;;7.78;3.13;;;;;;;15.55;40.95;101631.06;5063406;28;20032;-36
2023/05/01 10:04:12;;;;;;;13.43;3.03;;;;;;;15.63;40.91;101624.44;5068537;28;20033;-36
2023/05/01 10:06:38;;;;;;;10.18;2.58;;;;;;;15.67;40.92;101615.31;5069243;28;20032;-36
2023/05/01 10:09:06;;;;;;;9.20;2.97;;;;;;;15.70;40.82;101610.66;5070031;28;20028;-36
2023/05/01 10:11:52;;;;;;;7.50;2.95;;;;;;;15.73;38.69;101608.78;5075860;28;20112;-36
2023/05/01 10:14:19;;;;;;;10.88;3.05;;;;;;;15.74;40.45;101595.38;5070773;28;20035;-38
2023/05/01 10:16:45;;;;;;;13.10;4.00;;;;;;;15.80;40.38;101599.44;5067378;28;20051;-36
2023/05/01 10:19:12;;;;;;;13.10;5.32;;;;;;;15.89;40.15;101595.34;5066802;28;20058;-36
2023/05/01 10:21:37;;;;;;;8.55;4.13;;;;;;;15.98;39.88;101597.38;5080706;28;20028;-36
2023/05/01 10:24:04;;;;;;;8.93;3.15;;;;;;;16.04;39.82;101589.00;5066236;28;20434;-38
2023/05/01 10:26:33;;;;;;;5.13;2.33;;;;;;;16.12;39.28;101585.84;5073239;28;20108;-36
2023/05/01 10:29:00;;;;;;;7.88;2.83;;;;;;;16.17;39.13;101580.22;5074088;28;20130;-36
2023/05/01 10:31:26;;;;;;;8.00;2.08;;;;;;;16.19;38.80;101588.94;5079241;28;20123;-38
2023/05/01 10:33:53;;;;;;;4.93;2.10;;;;;;;16.19;38.34;101578.31;5083833;28;20050;-37
2023/05/01 10:36:27;;;;;;;28.35;10.68;;;;;;;16.22;37.82;101567.47;5080197;28;20444;-37
2023/05/01 10:38:56;;;;;;;14.50;6.30;;;;;;;16.24;38.26;101566.41;5081435;28;20059;-37
2023/05/01 10:42:00;;;;;;;9.55;4.07;;;;;;;16.29;37.34;101558.13;5070726;28;20032;-37
2023/05/01 10:44:26;;;;;;;7.13;2.45;;;;;;;16.31;37.94;101556.22;5070999;28;20028;-36
2023/05/01 10:46:52;;;;;;;3.95;1.58;;;;;;;16.38;37.93;101546.88;5073898;28;20035;-37
2023/05/01 10:49:18;;;;;;;7.28;3.17;;;;;;;16.40;37.79;101550.28;5073148;28;20040;-37
2023/05/01 10:51:56;;;;;;;4.22;1.80;;;;;;;16.48;37.06;101541.78;5075868;28;20466;-37
2023/05/01 10:54:32;;;;;;;6.25;2.33;;;;;;;16.48;37.35;101535.59;5073609;28;20585;-37
2023/05/01 10:57:01;;;;;;;4.65;2.30;;;;;;;16.53;36.48;101542.28;5054562;28;20636;-37
2023/05/01 10:59:58;;;;;;;7.45;2.92;;;;;;;16.56;36.21;101538.56;5073033;28;20029;-36
2023/05/01 11:02:25;;;;;;;10.48;2.22;;;;;;;16.59;36.90;101538.34;5074704;28;20024;-37
2023/05/01 11:04:52;;;;;;;7.20;2.15;;;;;;;16.58;36.83;101528.66;5070420;28;20043;-37
2023/05/01 11:07:18;;;;;;;9.13;2.50;;;;;;;16.66;36.56;101517.50;5064023;28;20465;-37
2023/05/01 11:09:57;;;;;;;9.35;2.97;;;;;;;16.72;36.14;101523.22;5075455;28;20020;-36
2023/05/01 11:12:44;;;;;;;7.97;2.63;;;;;;;16.79;35.65;101514.81;5070130;28;20032;-36
2023/05/01 11:15:11;;;;;;;5.65;2.10;;;;;;;16.82;36.24;101506.63;5075723;28;20044;-37
2023/05/01 11:17:42;;;;;;;8.90;2.78;;;;;;;16.88;36.00;101499.06;5078997;28;20429;-37
2023/05/01 11:20:31;;;;;;;6.63;2.28;;;;;;;16.94;36.42;101497.75;5070128;28;20063;-36
2023/05/01 11:22:57;;;;;;;10.75;3.72;;;;;;;16.95;36.56;101493.31;5063547;28;20101;-37
2023/05/01 11:25:26;;;;;;;13.48;7.00;;;;;;;16.97;36.16;101489.59;5073936;28;20151;-37
2023/05/01 11:27:55;;;;;;;8.40;3.88;;;;;;;17.05;36.00;101484.56;5058790;28;20039;-37
2023/05/01 11:30:21;;;;;;;5.50;2.42;;;;;;;17.12;35.90;101487.59;5068224;28;20085;-37